Ana Sayfa
METAR-TAF:

METAR-TAF

Havaalanları :

Oslo, Norveç

Oslo-Gardermoen Havalimanı

Enlem: 60-12N, Boylam: 011-05E, yükseklik: 208 m

Güncel hava durumu gözlemi

Rapor saat 07:20 UTC de 19 dakika önce yapıldı.
Rüzgar güney/güneybatıdan 3 kt, güneydoğu ve batı/güneybatı arasında değişken
Sıcaklık 10°C
Nem 43%
Basınç 1011 hPa
Görüş mesafesi 10 km veya daha fazla
1500 m altında bulut yok ve kümülonimbus yok

METAR: ENGM 210720Z 20003KT 140V250 CAVOK 10/M02 Q1011 NOSIG

Saat: 09:39 (07:39 UTC)

Tahmin

Ayın 21'si saat 06 UTC'den ayın 22'si saat 06 UTC'ye kadar geçerli Tahmin
Rüzgar kuzeybatıdan 8 kt
Görüş mesafesi 10 km veya daha fazla
1500 m altında bulut yok ve kümülonimbus yok

TAF: ENGM 2106/2206 32008KT CAVOK

4.000'den fazla havaalanı için hava durumu gözlemleri ve tahminleri (METAR ve TAF raporları).

Kullanılabilir istasyonlar harita üzerinde sarı ve kırmızı noktalarla gösterilir.

İstasyonun adını görmek için fareyi noktanın üzerinde gezdirin.

Sonrasında hava gözlem ve tahminlerini görmek için tıklayın.

Haritayı değiştirmek için: yaklaştırmak için siyah artı işaretli yeşil düğmeye ve uzaklaştırmak için de eksi işaretli düğmeye hızla tıklayın; bitişik haritalar için yeşil okları kullanın.


METAR-TAF: